sensor_id;sensor_type;location;lat;lon;timestamp;P1;durP1;ratioP1;P2;durP2;ratioP2
3865;SDS011;1948;53.250;10.412;2024-02-26T00:00:36;7.57;;;6.83;;
3865;SDS011;1948;53.250;10.412;2024-02-26T00:03:04;7.43;;;6.83;;
3865;SDS011;1948;53.250;10.412;2024-02-26T00:05:31;17.23;;;7.17;;
3865;SDS011;1948;53.250;10.412;2024-02-26T00:08:01;7.47;;;6.87;;
3865;SDS011;1948;53.250;10.412;2024-02-26T00:10:31;6.93;;;6.30;;
3865;SDS011;1948;53.250;10.412;2024-02-26T00:12:58;11.17;;;7.70;;
3865;SDS011;1948;53.250;10.412;2024-02-26T00:15:25;14.40;;;9.70;;
3865;SDS011;1948;53.250;10.412;2024-02-26T00:17:56;14.20;;;9.33;;
3865;SDS011;1948;53.250;10.412;2024-02-26T00:20:23;14.80;;;10.17;;
3865;SDS011;1948;53.250;10.412;2024-02-26T00:22:50;11.77;;;8.33;;
3865;SDS011;1948;53.250;10.412;2024-02-26T00:25:18;10.03;;;7.53;;
3865;SDS011;1948;53.250;10.412;2024-02-26T00:27:45;10.10;;;8.53;;
3865;SDS011;1948;53.250;10.412;2024-02-26T00:30:17;12.23;;;8.57;;
3865;SDS011;1948;53.250;10.412;2024-02-26T00:32:49;7.83;;;7.23;;
3865;SDS011;1948;53.250;10.412;2024-02-26T00:35:16;11.20;;;8.97;;
3865;SDS011;1948;53.250;10.412;2024-02-26T00:37:46;11.10;;;8.33;;
3865;SDS011;1948;53.250;10.412;2024-02-26T00:40:18;9.03;;;8.00;;
3865;SDS011;1948;53.250;10.412;2024-02-26T00:42:48;10.37;;;8.33;;
3865;SDS011;1948;53.250;10.412;2024-02-26T00:45:15;12.40;;;8.67;;
3865;SDS011;1948;53.250;10.412;2024-02-26T00:47:43;13.83;;;9.20;;
3865;SDS011;1948;53.250;10.412;2024-02-26T00:50:11;12.97;;;8.00;;
3865;SDS011;1948;53.250;10.412;2024-02-26T00:52:38;11.10;;;8.70;;
3865;SDS011;1948;53.250;10.412;2024-02-26T00:55:06;11.37;;;8.43;;
3865;SDS011;1948;53.250;10.412;2024-02-26T00:57:34;12.10;;;8.80;;
3865;SDS011;1948;53.250;10.412;2024-02-26T01:00:01;10.27;;;8.67;;
3865;SDS011;1948;53.250;10.412;2024-02-26T01:02:28;25.17;;;9.63;;
3865;SDS011;1948;53.250;10.412;2024-02-26T01:04:55;12.10;;;8.70;;
3865;SDS011;1948;53.250;10.412;2024-02-26T01:07:21;11.23;;;8.10;;
3865;SDS011;1948;53.250;10.412;2024-02-26T01:09:53;10.73;;;8.00;;
3865;SDS011;1948;53.250;10.412;2024-02-26T01:12:23;11.03;;;8.23;;
3865;SDS011;1948;53.250;10.412;2024-02-26T01:14:50;15.97;;;7.83;;
3865;SDS011;1948;53.250;10.412;2024-02-26T01:17:20;9.70;;;7.07;;
3865;SDS011;1948;53.250;10.412;2024-02-26T01:19:47;8.30;;;6.87;;
3865;SDS011;1948;53.250;10.412;2024-02-26T01:22:20;8.60;;;6.57;;
3865;SDS011;1948;53.250;10.412;2024-02-26T01:24:47;10.03;;;7.50;;
3865;SDS011;1948;53.250;10.412;2024-02-26T01:27:14;8.27;;;7.37;;
3865;SDS011;1948;53.250;10.412;2024-02-26T01:29:44;12.23;;;7.70;;
3865;SDS011;1948;53.250;10.412;2024-02-26T01:32:17;9.63;;;8.07;;
3865;SDS011;1948;53.250;10.412;2024-02-26T01:34:44;13.10;;;8.53;;
3865;SDS011;1948;53.250;10.412;2024-02-26T01:37:11;12.00;;;8.10;;
3865;SDS011;1948;53.250;10.412;2024-02-26T01:39:40;9.50;;;8.50;;
3865;SDS011;1948;53.250;10.412;2024-02-26T01:42:08;12.57;;;8.50;;
3865;SDS011;1948;53.250;10.412;2024-02-26T01:44:37;11.73;;;8.63;;
3865;SDS011;1948;53.250;10.412;2024-02-26T01:47:05;13.00;;;8.13;;
3865;SDS011;1948;53.250;10.412;2024-02-26T01:49:36;10.67;;;8.40;;
3865;SDS011;1948;53.250;10.412;2024-02-26T01:52:07;8.07;;;7.27;;
3865;SDS011;1948;53.250;10.412;2024-02-26T01:54:37;8.43;;;7.57;;
3865;SDS011;1948;53.250;10.412;2024-02-26T01:57:09;12.27;;;7.33;;
3865;SDS011;1948;53.250;10.412;2024-02-26T01:59:41;7.73;;;6.93;;
3865;SDS011;1948;53.250;10.412;2024-02-26T02:02:08;7.33;;;6.70;;
3865;SDS011;1948;53.250;10.412;2024-02-26T02:04:38;17.23;;;7.87;;
3865;SDS011;1948;53.250;10.412;2024-02-26T02:07:08;8.33;;;7.47;;
3865;SDS011;1948;53.250;10.412;2024-02-26T02:09:35;8.43;;;7.30;;
3865;SDS011;1948;53.250;10.412;2024-02-26T02:12:02;12.47;;;7.13;;
3865;SDS011;1948;53.250;10.412;2024-02-26T02:14:30;7.83;;;7.13;;
3865;SDS011;1948;53.250;10.412;2024-02-26T02:17:01;11.57;;;8.60;;
3865;SDS011;1948;53.250;10.412;2024-02-26T02:19:32;8.00;;;7.30;;
3865;SDS011;1948;53.250;10.412;2024-02-26T02:22:06;11.50;;;7.40;;
3865;SDS011;1948;53.250;10.412;2024-02-26T02:24:33;6.87;;;6.27;;
3865;SDS011;1948;53.250;10.412;2024-02-26T02:27:03;11.07;;;7.63;;
3865;SDS011;1948;53.250;10.412;2024-02-26T02:29:30;8.03;;;7.17;;
3865;SDS011;1948;53.250;10.412;2024-02-26T02:31:59;10.50;;;7.50;;
3865;SDS011;1948;53.250;10.412;2024-02-26T02:34:28;8.90;;;8.00;;
3865;SDS011;1948;53.250;10.412;2024-02-26T02:36:55;8.17;;;7.43;;
3865;SDS011;1948;53.250;10.412;2024-02-26T02:39:22;7.43;;;6.80;;
3865;SDS011;1948;53.250;10.412;2024-02-26T02:41:49;10.50;;;7.70;;
3865;SDS011;1948;53.250;10.412;2024-02-26T02:44:19;10.20;;;7.47;;
3865;SDS011;1948;53.250;10.412;2024-02-26T02:46:48;8.30;;;7.40;;
3865;SDS011;1948;53.250;10.412;2024-02-26T02:49:16;9.37;;;7.57;;
3865;SDS011;1948;53.250;10.412;2024-02-26T02:51:47;14.53;;;8.50;;
3865;SDS011;1948;53.250;10.412;2024-02-26T02:54:16;8.33;;;7.40;;
3865;SDS011;1948;53.250;10.412;2024-02-26T02:56:45;8.90;;;8.00;;
3865;SDS011;1948;53.250;10.412;2024-02-26T02:59:14;8.50;;;7.20;;
3865;SDS011;1948;53.250;10.412;2024-02-26T03:01:41;7.77;;;6.83;;
3865;SDS011;1948;53.250;10.412;2024-02-26T03:04:08;7.87;;;7.13;;
3865;SDS011;1948;53.250;10.412;2024-02-26T03:06:35;17.80;;;7.90;;
3865;SDS011;1948;53.250;10.412;2024-02-26T03:09:02;10.23;;;7.80;;
3865;SDS011;1948;53.250;10.412;2024-02-26T03:11:29;8.50;;;6.67;;
3865;SDS011;1948;53.250;10.412;2024-02-26T03:13:59;7.70;;;6.90;;
3865;SDS011;1948;53.250;10.412;2024-02-26T03:16:26;11.10;;;7.47;;
3865;SDS011;1948;53.250;10.412;2024-02-26T03:18:58;7.80;;;7.00;;
3865;SDS011;1948;53.250;10.412;2024-02-26T03:21:25;7.50;;;6.60;;
3865;SDS011;1948;53.250;10.412;2024-02-26T03:23:58;8.10;;;6.67;;
3865;SDS011;1948;53.250;10.412;2024-02-26T03:26:25;6.57;;;5.93;;
3865;SDS011;1948;53.250;10.412;2024-02-26T03:28:54;7.37;;;6.67;;
3865;SDS011;1948;53.250;10.412;2024-02-26T03:31:21;7.43;;;6.60;;
3865;SDS011;1948;53.250;10.412;2024-02-26T03:33:53;7.20;;;5.73;;
3865;SDS011;1948;53.250;10.412;2024-02-26T03:36:25;8.90;;;6.07;;
3865;SDS011;1948;53.250;10.412;2024-02-26T03:38:55;6.10;;;5.57;;
3865;SDS011;1948;53.250;10.412;2024-02-26T03:41:25;5.63;;;5.20;;
3865;SDS011;1948;53.250;10.412;2024-02-26T03:43:55;6.00;;;5.40;;
3865;SDS011;1948;53.250;10.412;2024-02-26T03:46:22;5.90;;;5.50;;
3865;SDS011;1948;53.250;10.412;2024-02-26T03:48:49;5.73;;;5.23;;
3865;SDS011;1948;53.250;10.412;2024-02-26T03:51:19;5.33;;;5.03;;
3865;SDS011;1948;53.250;10.412;2024-02-26T03:53:49;5.10;;;4.37;;
3865;SDS011;1948;53.250;10.412;2024-02-26T03:56:16;5.97;;;5.47;;
3865;SDS011;1948;53.250;10.412;2024-02-26T03:58:43;5.00;;;4.70;;
3865;SDS011;1948;53.250;10.412;2024-02-26T04:01:10;6.00;;;5.03;;
3865;SDS011;1948;53.250;10.412;2024-02-26T04:03:41;4.70;;;4.40;;
3865;SDS011;1948;53.250;10.412;2024-02-26T04:06:11;5.27;;;4.87;;
3865;SDS011;1948;53.250;10.412;2024-02-26T04:08:41;5.50;;;5.10;;
3865;SDS011;1948;53.250;10.412;2024-02-26T04:11:08;5.13;;;4.93;;
3865;SDS011;1948;53.250;10.412;2024-02-26T04:13:37;5.10;;;4.70;;
3865;SDS011;1948;53.250;10.412;2024-02-26T04:16:09;5.73;;;5.23;;
3865;SDS011;1948;53.250;10.412;2024-02-26T04:18:36;6.00;;;5.60;;
3865;SDS011;1948;53.250;10.412;2024-02-26T04:21:04;6.83;;;5.50;;
3865;SDS011;1948;53.250;10.412;2024-02-26T04:23:34;5.90;;;5.47;;
3865;SDS011;1948;53.250;10.412;2024-02-26T04:26:04;5.27;;;4.80;;
3865;SDS011;1948;53.250;10.412;2024-02-26T04:28:33;4.80;;;4.60;;
3865;SDS011;1948;53.250;10.412;2024-02-26T04:31:00;5.17;;;4.73;;
3865;SDS011;1948;53.250;10.412;2024-02-26T04:33:30;5.60;;;5.23;;
3865;SDS011;1948;53.250;10.412;2024-02-26T04:36:01;5.30;;;5.07;;
3865;SDS011;1948;53.250;10.412;2024-02-26T04:38:31;4.80;;;4.50;;
3865;SDS011;1948;53.250;10.412;2024-02-26T04:41:00;5.60;;;5.17;;
3865;SDS011;1948;53.250;10.412;2024-02-26T04:43:27;4.80;;;4.50;;
3865;SDS011;1948;53.250;10.412;2024-02-26T04:45:54;5.07;;;4.77;;
3865;SDS011;1948;53.250;10.412;2024-02-26T04:48:23;6.43;;;5.80;;
3865;SDS011;1948;53.250;10.412;2024-02-26T04:50:50;5.57;;;5.17;;
3865;SDS011;1948;53.250;10.412;2024-02-26T04:53:22;5.50;;;5.10;;
3865;SDS011;1948;53.250;10.412;2024-02-26T04:55:48;7.87;;;5.63;;
3865;SDS011;1948;53.250;10.412;2024-02-26T04:58:18;5.37;;;4.73;;
3865;SDS011;1948;53.250;10.412;2024-02-26T05:00:45;4.57;;;4.37;;
3865;SDS011;1948;53.250;10.412;2024-02-26T05:03:12;5.77;;;5.47;;
3865;SDS011;1948;53.250;10.412;2024-02-26T05:05:44;5.20;;;4.80;;
3865;SDS011;1948;53.250;10.412;2024-02-26T05:08:12;6.07;;;5.67;;
3865;SDS011;1948;53.250;10.412;2024-02-26T05:10:39;5.20;;;4.80;;
3865;SDS011;1948;53.250;10.412;2024-02-26T05:13:09;4.40;;;4.20;;
3865;SDS011;1948;53.250;10.412;2024-02-26T05:15:40;5.87;;;5.40;;
3865;SDS011;1948;53.250;10.412;2024-02-26T05:18:07;6.10;;;5.50;;
3865;SDS011;1948;53.250;10.412;2024-02-26T05:20:34;6.47;;;5.87;;
3865;SDS011;1948;53.250;10.412;2024-02-26T05:23:05;6.97;;;5.73;;
3865;SDS011;1948;53.250;10.412;2024-02-26T05:25:36;8.90;;;5.83;;
3865;SDS011;1948;53.250;10.412;2024-02-26T05:28:10;8.03;;;5.80;;
3865;SDS011;1948;53.250;10.412;2024-02-26T05:30:37;6.40;;;5.77;;
3865;SDS011;1948;53.250;10.412;2024-02-26T05:33:06;9.93;;;6.53;;
3865;SDS011;1948;53.250;10.412;2024-02-26T05:35:33;6.80;;;5.77;;
3865;SDS011;1948;53.250;10.412;2024-02-26T05:38:00;9.30;;;6.27;;
3865;SDS011;1948;53.250;10.412;2024-02-26T05:40:27;7.40;;;6.70;;
3865;SDS011;1948;53.250;10.412;2024-02-26T05:42:54;6.43;;;5.90;;
3865;SDS011;1948;53.250;10.412;2024-02-26T05:45:20;9.50;;;6.00;;
3865;SDS011;1948;53.250;10.412;2024-02-26T05:47:50;11.10;;;6.90;;
3865;SDS011;1948;53.250;10.412;2024-02-26T05:50:20;9.13;;;6.43;;
3865;SDS011;1948;53.250;10.412;2024-02-26T05:52:47;10.70;;;5.47;;
3865;SDS011;1948;53.250;10.412;2024-02-26T05:55:14;13.03;;;6.10;;
3865;SDS011;1948;53.250;10.412;2024-02-26T05:57:43;7.77;;;6.43;;
3865;SDS011;1948;53.250;10.412;2024-02-26T06:00:10;7.97;;;7.07;;
3865;SDS011;1948;53.250;10.412;2024-02-26T06:02:41;14.10;;;6.70;;
3865;SDS011;1948;53.250;10.412;2024-02-26T06:05:08;7.20;;;6.50;;
3865;SDS011;1948;53.250;10.412;2024-02-26T06:07:35;7.53;;;6.33;;
3865;SDS011;1948;53.250;10.412;2024-02-26T06:10:04;8.13;;;7.27;;
3865;SDS011;1948;53.250;10.412;2024-02-26T06:12:34;14.60;;;6.70;;
3865;SDS011;1948;53.250;10.412;2024-02-26T06:15:02;11.17;;;8.07;;
3865;SDS011;1948;53.250;10.412;2024-02-26T06:17:31;7.50;;;6.70;;
3865;SDS011;1948;53.250;10.412;2024-02-26T06:20:00;8.97;;;6.80;;
3865;SDS011;1948;53.250;10.412;2024-02-26T06:22:30;7.40;;;6.70;;
3865;SDS011;1948;53.250;10.412;2024-02-26T06:24:58;16.13;;;8.53;;
3865;SDS011;1948;53.250;10.412;2024-02-26T06:27:24;10.87;;;6.93;;
3865;SDS011;1948;53.250;10.412;2024-02-26T06:29:52;7.50;;;6.80;;
3865;SDS011;1948;53.250;10.412;2024-02-26T06:32:22;7.50;;;6.90;;
3865;SDS011;1948;53.250;10.412;2024-02-26T06:34:52;7.23;;;6.60;;
3865;SDS011;1948;53.250;10.412;2024-02-26T06:37:19;11.30;;;6.63;;
3865;SDS011;1948;53.250;10.412;2024-02-26T06:39:46;11.03;;;6.63;;
3865;SDS011;1948;53.250;10.412;2024-02-26T06:42:17;10.07;;;6.90;;
3865;SDS011;1948;53.250;10.412;2024-02-26T06:44:44;7.10;;;6.40;;
3865;SDS011;1948;53.250;10.412;2024-02-26T06:47:11;7.23;;;6.67;;
3865;SDS011;1948;53.250;10.412;2024-02-26T06:49:41;6.93;;;6.37;;
3865;SDS011;1948;53.250;10.412;2024-02-26T06:52:10;7.30;;;6.70;;
3865;SDS011;1948;53.250;10.412;2024-02-26T06:54:37;15.87;;;7.90;;
3865;SDS011;1948;53.250;10.412;2024-02-26T06:57:04;7.73;;;6.33;;
3865;SDS011;1948;53.250;10.412;2024-02-26T06:59:31;13.20;;;5.87;;
3865;SDS011;1948;53.250;10.412;2024-02-26T07:01:58;7.43;;;6.40;;
3865;SDS011;1948;53.250;10.412;2024-02-26T07:04:25;6.77;;;6.27;;
3865;SDS011;1948;53.250;10.412;2024-02-26T07:06:52;6.57;;;6.07;;
3865;SDS011;1948;53.250;10.412;2024-02-26T07:09:22;6.23;;;5.87;;
3865;SDS011;1948;53.250;10.412;2024-02-26T07:11:49;5.97;;;5.57;;
3865;SDS011;1948;53.250;10.412;2024-02-26T07:14:16;5.47;;;5.20;;
3865;SDS011;1948;53.250;10.412;2024-02-26T07:16:43;7.57;;;6.70;;
3865;SDS011;1948;53.250;10.412;2024-02-26T07:19:12;5.70;;;5.50;;
3865;SDS011;1948;53.250;10.412;2024-02-26T07:21:42;5.87;;;5.63;;
3865;SDS011;1948;53.250;10.412;2024-02-26T07:24:09;7.33;;;5.50;;
3865;SDS011;1948;53.250;10.412;2024-02-26T07:26:38;5.30;;;5.10;;
3865;SDS011;1948;53.250;10.412;2024-02-26T07:29:08;5.70;;;5.40;;
3865;SDS011;1948;53.250;10.412;2024-02-26T07:31:37;5.40;;;5.20;;
3865;SDS011;1948;53.250;10.412;2024-02-26T07:34:04;7.13;;;6.00;;
3865;SDS011;1948;53.250;10.412;2024-02-26T07:36:32;6.00;;;5.70;;
3865;SDS011;1948;53.250;10.412;2024-02-26T07:39:05;5.90;;;5.40;;
3865;SDS011;1948;53.250;10.412;2024-02-26T07:41:32;5.90;;;5.60;;
3865;SDS011;1948;53.250;10.412;2024-02-26T07:43:59;5.90;;;5.40;;
3865;SDS011;1948;53.250;10.412;2024-02-26T07:46:26;6.27;;;5.87;;
3865;SDS011;1948;53.250;10.412;2024-02-26T07:48:53;5.33;;;5.13;;
3865;SDS011;1948;53.250;10.412;2024-02-26T07:51:21;5.73;;;5.33;;
3865;SDS011;1948;53.250;10.412;2024-02-26T07:53:51;14.73;;;5.53;;
3865;SDS011;1948;53.250;10.412;2024-02-26T07:56:20;6.80;;;6.20;;
3865;SDS011;1948;53.250;10.412;2024-02-26T07:58:47;7.00;;;6.40;;
3865;SDS011;1948;53.250;10.412;2024-02-26T08:01:14;7.00;;;6.30;;
3865;SDS011;1948;53.250;10.412;2024-02-26T08:03:41;7.07;;;6.43;;
3865;SDS011;1948;53.250;10.412;2024-02-26T08:06:11;5.70;;;5.40;;
3865;SDS011;1948;53.250;10.412;2024-02-26T08:08:43;5.50;;;5.30;;
3865;SDS011;1948;53.250;10.412;2024-02-26T08:11:10;6.73;;;6.03;;
3865;SDS011;1948;53.250;10.412;2024-02-26T08:13:37;8.17;;;5.40;;
3865;SDS011;1948;53.250;10.412;2024-02-26T08:16:05;5.90;;;5.53;;
3865;SDS011;1948;53.250;10.412;2024-02-26T08:18:32;6.43;;;6.03;;
3865;SDS011;1948;53.250;10.412;2024-02-26T08:20:59;9.83;;;5.70;;
3865;SDS011;1948;53.250;10.412;2024-02-26T08:23:29;10.83;;;5.90;;
3865;SDS011;1948;53.250;10.412;2024-02-26T08:25:57;7.37;;;6.13;;
3865;SDS011;1948;53.250;10.412;2024-02-26T08:28:26;6.27;;;5.47;;
3865;SDS011;1948;53.250;10.412;2024-02-26T08:30:56;6.50;;;5.90;;
3865;SDS011;1948;53.250;10.412;2024-02-26T08:33:23;6.90;;;6.30;;
3865;SDS011;1948;53.250;10.412;2024-02-26T08:35:50;7.57;;;6.10;;
3865;SDS011;1948;53.250;10.412;2024-02-26T08:38:17;6.00;;;5.60;;
3865;SDS011;1948;53.250;10.412;2024-02-26T08:40:46;7.10;;;6.30;;
3865;SDS011;1948;53.250;10.412;2024-02-26T08:43:14;7.70;;;6.97;;
3865;SDS011;1948;53.250;10.412;2024-02-26T08:45:45;11.13;;;6.50;;
3865;SDS011;1948;53.250;10.412;2024-02-26T08:48:12;5.93;;;5.60;;
3865;SDS011;1948;53.250;10.412;2024-02-26T08:50:42;5.70;;;5.40;;
3865;SDS011;1948;53.250;10.412;2024-02-26T08:53:09;6.17;;;5.77;;
3865;SDS011;1948;53.250;10.412;2024-02-26T08:55:36;6.57;;;5.67;;
3865;SDS011;1948;53.250;10.412;2024-02-26T08:58:05;6.50;;;5.97;;
3865;SDS011;1948;53.250;10.412;2024-02-26T09:00:32;6.07;;;5.50;;
3865;SDS011;1948;53.250;10.412;2024-02-26T09:03:02;5.83;;;5.53;;
3865;SDS011;1948;53.250;10.412;2024-02-26T09:05:31;10.50;;;8.30;;
3865;SDS011;1948;53.250;10.412;2024-02-26T09:08:01;9.40;;;7.77;;
3865;SDS011;1948;53.250;10.412;2024-02-26T09:10:30;5.83;;;5.43;;
3865;SDS011;1948;53.250;10.412;2024-02-26T09:12:59;9.50;;;7.57;;
3865;SDS011;1948;53.250;10.412;2024-02-26T09:15:29;11.40;;;9.23;;
3865;SDS011;1948;53.250;10.412;2024-02-26T09:17:58;12.60;;;7.13;;
3865;SDS011;1948;53.250;10.412;2024-02-26T09:20:31;25.03;;;14.00;;
3865;SDS011;1948;53.250;10.412;2024-02-26T09:22:58;5.77;;;5.47;;
3865;SDS011;1948;53.250;10.412;2024-02-26T09:25:25;7.40;;;6.73;;
3865;SDS011;1948;53.250;10.412;2024-02-26T09:27:52;6.60;;;6.10;;
3865;SDS011;1948;53.250;10.412;2024-02-26T09:30:22;6.83;;;6.17;;
3865;SDS011;1948;53.250;10.412;2024-02-26T09:32:49;7.50;;;6.70;;
3865;SDS011;1948;53.250;10.412;2024-02-26T09:35:16;6.77;;;6.20;;
3865;SDS011;1948;53.250;10.412;2024-02-26T09:37:43;6.20;;;5.80;;
3865;SDS011;1948;53.250;10.412;2024-02-26T09:40:10;6.20;;;5.80;;
3865;SDS011;1948;53.250;10.412;2024-02-26T09:42:44;6.50;;;6.00;;
3865;SDS011;1948;53.250;10.412;2024-02-26T09:45:17;5.77;;;5.40;;
3865;SDS011;1948;53.250;10.412;2024-02-26T09:47:48;7.63;;;5.93;;
3865;SDS011;1948;53.250;10.412;2024-02-26T09:50:19;6.10;;;5.70;;
3865;SDS011;1948;53.250;10.412;2024-02-26T09:52:53;5.40;;;5.20;;
3865;SDS011;1948;53.250;10.412;2024-02-26T09:55:21;6.17;;;5.77;;
3865;SDS011;1948;53.250;10.412;2024-02-26T09:57:48;6.40;;;5.50;;
3865;SDS011;1948;53.250;10.412;2024-02-26T10:00:21;5.70;;;5.33;;
3865;SDS011;1948;53.250;10.412;2024-02-26T10:02:49;5.80;;;5.40;;
3865;SDS011;1948;53.250;10.412;2024-02-26T10:05:20;5.87;;;5.47;;
3865;SDS011;1948;53.250;10.412;2024-02-26T10:07:48;5.70;;;5.40;;
3865;SDS011;1948;53.250;10.412;2024-02-26T10:10:17;5.83;;;5.50;;
3865;SDS011;1948;53.250;10.412;2024-02-26T10:12:44;5.57;;;5.27;;
3865;SDS011;1948;53.250;10.412;2024-02-26T10:15:12;6.70;;;6.10;;
3865;SDS011;1948;53.250;10.412;2024-02-26T10:17:39;5.83;;;5.27;;
3865;SDS011;1948;53.250;10.412;2024-02-26T10:20:11;7.40;;;6.80;;
3865;SDS011;1948;53.250;10.412;2024-02-26T10:22:38;5.80;;;5.50;;
3865;SDS011;1948;53.250;10.412;2024-02-26T10:25:05;6.40;;;5.60;;
3865;SDS011;1948;53.250;10.412;2024-02-26T10:27:34;6.07;;;5.57;;
3865;SDS011;1948;53.250;10.412;2024-02-26T10:30:03;5.30;;;5.10;;
3865;SDS011;1948;53.250;10.412;2024-02-26T10:32:32;5.20;;;5.00;;
3865;SDS011;1948;53.250;10.412;2024-02-26T10:34:59;6.70;;;6.30;;
3865;SDS011;1948;53.250;10.412;2024-02-26T10:37:29;8.20;;;5.90;;
3865;SDS011;1948;53.250;10.412;2024-02-26T10:39:58;4.97;;;4.87;;
3865;SDS011;1948;53.250;10.412;2024-02-26T10:42:30;5.33;;;5.13;;
3865;SDS011;1948;53.250;10.412;2024-02-26T10:44:59;5.97;;;5.17;;
3865;SDS011;1948;53.250;10.412;2024-02-26T10:47:29;6.30;;;4.70;;
3865;SDS011;1948;53.250;10.412;2024-02-26T10:49:58;5.50;;;5.10;;
3865;SDS011;1948;53.250;10.412;2024-02-26T10:52:25;7.30;;;4.80;;
3865;SDS011;1948;53.250;10.412;2024-02-26T10:55:02;5.20;;;4.70;;
3865;SDS011;1948;53.250;10.412;2024-02-26T10:57:34;5.53;;;5.13;;
3865;SDS011;1948;53.250;10.412;2024-02-26T11:00:06;4.90;;;4.70;;
3865;SDS011;1948;53.250;10.412;2024-02-26T11:02:37;4.10;;;3.90;;
3865;SDS011;1948;53.250;10.412;2024-02-26T11:05:05;4.77;;;4.40;;
3865;SDS011;1948;53.250;10.412;2024-02-26T11:07:34;6.73;;;3.97;;
3865;SDS011;1948;53.250;10.412;2024-02-26T11:10:04;4.60;;;4.40;;
3865;SDS011;1948;53.250;10.412;2024-02-26T11:12:35;4.37;;;4.03;;
3865;SDS011;1948;53.250;10.412;2024-02-26T11:15:04;5.33;;;4.97;;
3865;SDS011;1948;53.250;10.412;2024-02-26T11:17:32;4.07;;;3.80;;
3865;SDS011;1948;53.250;10.412;2024-02-26T11:20:05;4.30;;;4.00;;
3865;SDS011;1948;53.250;10.412;2024-02-26T11:22:39;3.70;;;3.60;;
3865;SDS011;1948;53.250;10.412;2024-02-26T11:25:06;6.50;;;3.97;;
3865;SDS011;1948;53.250;10.412;2024-02-26T11:27:38;4.57;;;3.50;;
3865;SDS011;1948;53.250;10.412;2024-02-26T11:30:10;4.40;;;4.00;;
3865;SDS011;1948;53.250;10.412;2024-02-26T11:32:39;4.30;;;3.97;;
3865;SDS011;1948;53.250;10.412;2024-02-26T11:35:06;4.80;;;4.50;;
3865;SDS011;1948;53.250;10.412;2024-02-26T11:37:39;4.50;;;4.20;;
3865;SDS011;1948;53.250;10.412;2024-02-26T11:40:11;4.60;;;4.20;;
3865;SDS011;1948;53.250;10.412;2024-02-26T11:42:43;4.43;;;4.13;;
3865;SDS011;1948;53.250;10.412;2024-02-26T11:48:11;3.70;;;3.60;;
3865;SDS011;1948;53.250;10.412;2024-02-26T11:50:52;9.77;;;3.70;;
3865;SDS011;1948;53.250;10.412;2024-02-26T11:53:21;3.97;;;3.57;;
3865;SDS011;1948;53.250;10.412;2024-02-26T11:58:44;3.70;;;3.40;;
3865;SDS011;1948;53.250;10.412;2024-02-26T12:07:35;3.60;;;3.50;;
3865;SDS011;1948;53.250;10.412;2024-02-26T12:25:19;3.10;;;3.00;;
3865;SDS011;1948;53.250;10.412;2024-02-26T12:27:50;3.20;;;3.10;;
3865;SDS011;1948;53.250;10.412;2024-02-26T12:30:20;3.97;;;3.67;;
3865;SDS011;1948;53.250;10.412;2024-02-26T12:32:48;3.40;;;3.30;;
3865;SDS011;1948;53.250;10.412;2024-02-26T12:35:17;3.83;;;3.60;;
3865;SDS011;1948;53.250;10.412;2024-02-26T12:37:47;3.73;;;3.53;;
3865;SDS011;1948;53.250;10.412;2024-02-26T12:40:14;4.23;;;4.03;;
3865;SDS011;1948;53.250;10.412;2024-02-26T12:42:43;3.23;;;3.13;;
3865;SDS011;1948;53.250;10.412;2024-02-26T12:45:15;3.87;;;3.50;;
3865;SDS011;1948;53.250;10.412;2024-02-26T12:47:43;3.23;;;3.10;;
3865;SDS011;1948;53.250;10.412;2024-02-26T12:50:15;3.23;;;3.17;;
3865;SDS011;1948;53.250;10.412;2024-02-26T12:52:43;5.60;;;3.67;;
3865;SDS011;1948;53.250;10.412;2024-02-26T12:55:13;3.43;;;3.20;;
3865;SDS011;1948;53.250;10.412;2024-02-26T12:57:43;6.40;;;3.10;;
3865;SDS011;1948;53.250;10.412;2024-02-26T13:00:18;3.20;;;3.10;;
3865;SDS011;1948;53.250;10.412;2024-02-26T13:02:50;4.87;;;3.10;;
3865;SDS011;1948;53.250;10.412;2024-02-26T13:05:21;2.90;;;2.87;;
3865;SDS011;1948;53.250;10.412;2024-02-26T13:07:49;3.13;;;2.47;;
3865;SDS011;1948;53.250;10.412;2024-02-26T13:10:19;3.23;;;3.23;;
3865;SDS011;1948;53.250;10.412;2024-02-26T13:12:48;2.80;;;2.80;;
3865;SDS011;1948;53.250;10.412;2024-02-26T13:15:19;3.17;;;2.97;;
3865;SDS011;1948;53.250;10.412;2024-02-26T13:17:49;3.93;;;3.73;;
3865;SDS011;1948;53.250;10.412;2024-02-26T13:20:26;2.93;;;2.73;;
3865;SDS011;1948;53.250;10.412;2024-02-26T13:25:33;3.50;;;2.70;;
3865;SDS011;1948;53.250;10.412;2024-02-26T13:28:15;3.20;;;2.87;;
3865;SDS011;1948;53.250;10.412;2024-02-26T13:30:54;2.93;;;2.83;;
3865;SDS011;1948;53.250;10.412;2024-02-26T13:33:30;5.23;;;2.43;;
3865;SDS011;1948;53.250;10.412;2024-02-26T13:36:00;2.70;;;2.60;;
3865;SDS011;1948;53.250;10.412;2024-02-26T13:38:27;2.60;;;2.60;;
3865;SDS011;1948;53.250;10.412;2024-02-26T13:40:55;2.13;;;2.13;;
3865;SDS011;1948;53.250;10.412;2024-02-26T13:43:27;3.20;;;3.00;;
3865;SDS011;1948;53.250;10.412;2024-02-26T13:45:54;2.70;;;2.70;;
3865;SDS011;1948;53.250;10.412;2024-02-26T13:48:21;2.73;;;2.73;;
3865;SDS011;1948;53.250;10.412;2024-02-26T13:50:56;3.23;;;3.13;;
3865;SDS011;1948;53.250;10.412;2024-02-26T13:53:26;6.33;;;3.90;;
3865;SDS011;1948;53.250;10.412;2024-02-26T13:55:55;3.67;;;3.57;;
3865;SDS011;1948;53.250;10.412;2024-02-26T13:58:24;6.10;;;5.60;;
3865;SDS011;1948;53.250;10.412;2024-02-26T14:00:55;3.13;;;2.83;;
3865;SDS011;1948;53.250;10.412;2024-02-26T14:03:23;6.73;;;3.73;;
3865;SDS011;1948;53.250;10.412;2024-02-26T14:05:50;11.60;;;3.50;;
3865;SDS011;1948;53.250;10.412;2024-02-26T14:08:17;3.10;;;3.10;;
3865;SDS011;1948;53.250;10.412;2024-02-26T14:10:44;3.63;;;3.43;;
3865;SDS011;1948;53.250;10.412;2024-02-26T14:13:11;4.77;;;4.57;;
3865;SDS011;1948;53.250;10.412;2024-02-26T14:15:40;3.50;;;3.40;;
3865;SDS011;1948;53.250;10.412;2024-02-26T14:18:09;7.30;;;3.70;;
3865;SDS011;1948;53.250;10.412;2024-02-26T14:20:38;4.23;;;4.00;;
3865;SDS011;1948;53.250;10.412;2024-02-26T14:23:08;4.00;;;3.90;;
3865;SDS011;1948;53.250;10.412;2024-02-26T14:25:37;4.23;;;4.13;;
3865;SDS011;1948;53.250;10.412;2024-02-26T14:28:05;4.70;;;4.50;;
3865;SDS011;1948;53.250;10.412;2024-02-26T14:30:44;4.87;;;4.67;;
3865;SDS011;1948;53.250;10.412;2024-02-26T14:33:11;6.00;;;5.57;;
3865;SDS011;1948;53.250;10.412;2024-02-26T14:35:38;5.27;;;5.07;;
3865;SDS011;1948;53.250;10.412;2024-02-26T14:38:05;5.57;;;5.17;;
3865;SDS011;1948;53.250;10.412;2024-02-26T14:40:37;5.30;;;5.10;;
3865;SDS011;1948;53.250;10.412;2024-02-26T14:43:04;5.97;;;5.43;;
3865;SDS011;1948;53.250;10.412;2024-02-26T14:45:31;6.27;;;5.87;;
3865;SDS011;1948;53.250;10.412;2024-02-26T14:47:58;8.47;;;5.40;;
3865;SDS011;1948;53.250;10.412;2024-02-26T14:50:29;5.83;;;5.40;;
3865;SDS011;1948;53.250;10.412;2024-02-26T14:52:58;5.90;;;5.60;;
3865;SDS011;1948;53.250;10.412;2024-02-26T14:55:28;11.20;;;6.43;;
3865;SDS011;1948;53.250;10.412;2024-02-26T14:57:58;7.90;;;6.20;;
3865;SDS011;1948;53.250;10.412;2024-02-26T15:00:32;7.13;;;6.73;;
3865;SDS011;1948;53.250;10.412;2024-02-26T15:03:03;8.80;;;8.07;;
3865;SDS011;1948;53.250;10.412;2024-02-26T15:05:30;8.10;;;7.50;;
3865;SDS011;1948;53.250;10.412;2024-02-26T15:07:58;8.40;;;7.63;;
3865;SDS011;1948;53.250;10.412;2024-02-26T15:10:28;9.87;;;9.10;;
3865;SDS011;1948;53.250;10.412;2024-02-26T15:13:00;9.87;;;9.00;;
3865;SDS011;1948;53.250;10.412;2024-02-26T15:15:30;10.03;;;9.03;;
3865;SDS011;1948;53.250;10.412;2024-02-26T15:17:58;11.93;;;10.73;;
3865;SDS011;1948;53.250;10.412;2024-02-26T15:20:27;11.57;;;10.37;;
3865;SDS011;1948;53.250;10.412;2024-02-26T15:22:56;12.30;;;9.97;;
3865;SDS011;1948;53.250;10.412;2024-02-26T15:25:25;11.73;;;10.43;;
3865;SDS011;1948;53.250;10.412;2024-02-26T15:27:52;11.27;;;10.23;;
3865;SDS011;1948;53.250;10.412;2024-02-26T15:30:19;11.67;;;10.50;;
3865;SDS011;1948;53.250;10.412;2024-02-26T15:32:46;11.30;;;10.10;;
3865;SDS011;1948;53.250;10.412;2024-02-26T15:35:14;11.53;;;10.30;;
3865;SDS011;1948;53.250;10.412;2024-02-26T15:37:41;12.13;;;10.90;;